createdAt,value
2018-11-01T00:00:23.400Z,5.80
2018-11-01T00:02:51.756Z,5.80
2018-11-01T00:05:20.082Z,5.70
2018-11-01T00:07:48.472Z,5.60
2018-11-01T00:10:16.757Z,5.70
2018-11-01T00:12:45.190Z,5.70
2018-11-01T00:15:14.512Z,5.70
2018-11-01T00:17:42.924Z,5.70
2018-11-01T00:22:41.042Z,5.70
2018-11-01T00:25:11.054Z,5.70
2018-11-01T00:27:39.450Z,5.70
2018-11-01T00:30:08.200Z,5.60
2018-11-01T00:32:36.497Z,5.60
2018-11-01T00:35:04.822Z,5.50
2018-11-01T00:37:33.174Z,5.50
2018-11-01T00:40:01.442Z,5.50
2018-11-01T00:42:29.772Z,5.50
2018-11-01T00:44:57.991Z,5.50
2018-11-01T00:47:26.212Z,5.40
2018-11-01T00:49:54.441Z,5.40
2018-11-01T00:52:22.686Z,5.30
2018-11-01T00:54:50.904Z,5.30
2018-11-01T00:57:19.167Z,5.30
2018-11-01T00:59:47.408Z,5.30
2018-11-01T01:02:15.667Z,5.20
2018-11-01T01:04:43.943Z,5.20
2018-11-01T01:07:12.542Z,5.00
2018-11-01T01:09:40.774Z,5.00
2018-11-01T01:12:09.005Z,5.10
2018-11-01T01:14:37.285Z,5.20
2018-11-01T01:17:05.670Z,5.10
2018-11-01T01:19:33.934Z,5.10
2018-11-01T01:22:02.189Z,5.10
2018-11-01T01:24:30.462Z,5.00
2018-11-01T01:26:58.721Z,5.00
2018-11-01T01:29:26.953Z,5.00
2018-11-01T01:31:55.223Z,4.90
2018-11-01T01:34:23.505Z,4.90
2018-11-01T01:36:51.972Z,4.80
2018-11-01T01:39:20.290Z,5.00
2018-11-01T01:41:48.534Z,5.10
2018-11-01T01:44:16.756Z,5.20
2018-11-01T01:46:44.993Z,5.10
2018-11-01T01:49:16.176Z,5.00
2018-11-01T01:51:49.553Z,5.00
2018-11-01T01:54:17.914Z,4.90
2018-11-01T01:56:46.185Z,4.90
2018-11-01T01:59:14.417Z,4.80
2018-11-01T02:01:42.753Z,4.60
2018-11-01T02:04:11.019Z,4.50
2018-11-01T02:06:39.226Z,4.30
2018-11-01T02:09:10.794Z,4.20
2018-11-01T02:11:39.885Z,4.20
2018-11-01T02:14:08.244Z,4.20
2018-11-01T02:16:36.463Z,4.10
2018-11-01T02:19:05.018Z,4.10
2018-11-01T02:21:33.231Z,4.10
2018-11-01T02:24:01.441Z,4.30
2018-11-01T02:26:29.641Z,4.30
2018-11-01T02:28:57.861Z,4.30
2018-11-01T02:31:26.075Z,4.20
2018-11-01T02:33:54.373Z,4.20
2018-11-01T02:36:22.590Z,4.10
2018-11-01T02:38:50.911Z,4.10
2018-11-01T02:41:18.982Z,4.00
2018-11-01T02:43:47.228Z,4.10
2018-11-01T02:46:15.590Z,4.10
2018-11-01T02:48:43.982Z,4.10
2018-11-01T02:51:12.253Z,4.20
2018-11-01T02:53:40.455Z,4.20
2018-11-01T02:56:08.686Z,4.20
2018-11-01T02:58:36.937Z,4.10
2018-11-01T03:01:05.332Z,4.00
2018-11-01T03:03:33.565Z,3.90
2018-11-01T03:06:01.809Z,3.90
2018-11-01T03:08:30.037Z,3.90
2018-11-01T03:10:58.292Z,4.00
2018-11-01T03:13:26.500Z,4.00
2018-11-01T03:15:54.742Z,3.90
2018-11-01T03:18:23.062Z,2.80
2018-11-01T03:20:51.859Z,3.80
2018-11-01T03:23:20.149Z,3.80
2018-11-01T03:25:48.354Z,3.90
2018-11-01T03:28:16.577Z,3.90
2018-11-01T03:30:44.765Z,3.80
2018-11-01T03:33:12.970Z,3.90
2018-11-01T03:35:41.277Z,3.90
2018-11-01T03:38:09.521Z,3.90
2018-11-01T03:40:37.640Z,3.80
2018-11-01T03:43:05.956Z,3.90
2018-11-01T03:45:34.305Z,3.80
2018-11-01T03:48:02.444Z,3.80
2018-11-01T03:50:30.686Z,3.80
2018-11-01T03:52:58.979Z,3.80
2018-11-01T03:55:27.289Z,3.80
2018-11-01T03:57:55.506Z,3.80
2018-11-01T04:00:23.693Z,3.80
2018-11-01T04:02:51.902Z,3.80
2018-11-01T04:05:20.141Z,3.80
2018-11-01T04:07:48.602Z,3.80
2018-11-01T04:12:44.789Z,3.90
2018-11-01T04:15:14.093Z,3.90
2018-11-01T04:17:42.227Z,3.90
2018-11-01T04:20:11.653Z,4.00
2018-11-01T04:22:40.220Z,4.00
2018-11-01T04:25:08.554Z,4.00
2018-11-01T04:27:36.757Z,4.00
2018-11-01T04:30:05.236Z,4.00
2018-11-01T04:32:33.497Z,4.10
2018-11-01T04:35:01.725Z,4.10
2018-11-01T04:37:29.881Z,4.00
2018-11-01T04:39:58.054Z,3.90
2018-11-01T04:42:26.210Z,4.00
2018-11-01T04:44:54.445Z,3.90
2018-11-01T04:47:22.560Z,3.90
2018-11-01T04:49:50.702Z,3.90
2018-11-01T04:52:18.909Z,4.00
2018-11-01T04:54:47.092Z,4.20
2018-11-01T04:59:43.150Z,4.10
2018-11-01T05:02:11.318Z,4.10
2018-11-01T05:04:39.493Z,4.20
2018-11-01T05:07:07.684Z,4.30
2018-11-01T05:12:03.813Z,4.40
2018-11-01T05:14:31.979Z,4.70
2018-11-01T05:19:28.204Z,4.40
2018-11-01T05:21:56.383Z,4.40
2018-11-01T05:24:24.599Z,4.40
2018-11-01T05:26:52.845Z,4.50
2018-11-01T05:31:49.337Z,4.50
2018-11-01T05:34:17.556Z,4.50
2018-11-01T05:36:45.757Z,4.40
2018-11-01T05:39:13.990Z,4.40
2018-11-01T05:41:42.156Z,4.40
2018-11-01T05:44:10.328Z,4.30
2018-11-01T05:46:38.539Z,4.30
2018-11-01T05:49:06.855Z,4.30
2018-11-01T05:51:35.048Z,4.40
2018-11-01T05:54:03.226Z,4.40
2018-11-01T05:56:31.403Z,4.40
2018-11-01T05:58:59.647Z,4.50
2018-11-01T06:01:32.006Z,4.60
2018-11-01T06:04:00.381Z,4.60
2018-11-01T06:06:28.567Z,4.60
2018-11-01T06:08:56.871Z,4.60
2018-11-01T06:13:53.043Z,4.70
2018-11-01T06:16:21.355Z,4.70
2018-11-01T06:18:49.519Z,4.70
2018-11-01T06:21:17.699Z,4.60
2018-11-01T06:23:46.000Z,4.70
2018-11-01T06:26:14.190Z,4.70
2018-11-01T06:28:42.374Z,4.70
2018-11-01T06:31:10.545Z,4.70
2018-11-01T06:33:38.752Z,4.70
2018-11-01T06:36:09.001Z,4.70
2018-11-01T06:38:37.173Z,4.70
2018-11-01T06:41:05.351Z,4.60
2018-11-01T06:43:33.497Z,4.70
2018-11-01T06:48:29.675Z,4.70
2018-11-01T06:50:57.877Z,4.80
2018-11-01T06:53:26.058Z,4.90
2018-11-01T06:55:54.302Z,4.90
2018-11-01T06:58:22.517Z,4.90
2018-11-01T07:00:50.688Z,4.90
2018-11-01T07:03:18.889Z,4.90
2018-11-01T07:05:47.138Z,4.90
2018-11-01T07:08:15.204Z,5.10
2018-11-01T07:10:43.377Z,5.10
2018-11-01T07:13:11.526Z,5.20
2018-11-01T07:15:39.990Z,5.30
2018-11-01T07:18:08.149Z,5.30
2018-11-01T07:20:36.305Z,5.30
2018-11-01T07:23:04.883Z,5.30
2018-11-01T07:25:33.146Z,6.00
2018-11-01T07:28:01.226Z,6.50
2018-11-01T07:30:29.392Z,5.90
2018-11-01T07:32:57.615Z,5.60
2018-11-01T07:35:25.750Z,5.60
2018-11-01T07:37:53.906Z,5.50
2018-11-01T07:40:22.100Z,5.60
2018-11-01T07:42:50.249Z,5.60
2018-11-01T07:45:18.409Z,5.70
2018-11-01T07:50:14.919Z,6.40
2018-11-01T07:52:43.309Z,6.20
2018-11-01T07:55:13.008Z,6.40
2018-11-01T08:00:11.294Z,6.20
2018-11-01T08:02:39.494Z,6.00
2018-11-01T08:05:08.653Z,6.10
2018-11-01T08:07:36.863Z,6.10
2018-11-01T08:10:08.200Z,6.60
2018-11-01T08:12:36.359Z,6.50
2018-11-01T08:15:05.755Z,6.80
2018-11-01T08:17:33.914Z,6.80
2018-11-01T08:20:02.287Z,6.30
2018-11-01T08:22:30.466Z,6.30
2018-11-01T08:24:58.639Z,6.30
2018-11-01T08:27:26.792Z,6.30
2018-11-01T08:29:54.986Z,6.20
2018-11-01T08:32:23.169Z,6.30
2018-11-01T08:34:51.349Z,6.40
2018-11-01T08:37:19.509Z,6.40
2018-11-01T08:39:47.771Z,6.20
2018-11-01T08:42:15.926Z,6.30
2018-11-01T08:44:44.103Z,6.30
2018-11-01T08:47:12.261Z,6.40
2018-11-01T08:49:40.433Z,6.40
2018-11-01T08:52:08.586Z,6.50
2018-11-01T08:54:36.766Z,6.40
2018-11-01T08:59:33.414Z,6.50
2018-11-01T09:02:01.591Z,6.60
2018-11-01T09:04:29.768Z,6.60
2018-11-01T09:06:57.953Z,6.80
2018-11-01T09:09:26.113Z,6.70
2018-11-01T09:11:54.292Z,6.80
2018-11-01T09:14:22.591Z,6.80
2018-11-01T09:16:50.806Z,6.80
2018-11-01T09:19:19.083Z,6.80
2018-11-01T09:21:47.275Z,6.80
2018-11-01T09:24:15.477Z,6.90
2018-11-01T09:26:44.068Z,6.90
2018-11-01T09:34:08.155Z,7.10
2018-11-01T09:36:36.430Z,7.20
2018-11-01T09:39:07.107Z,7.20
2018-11-01T09:41:35.285Z,7.40
2018-11-01T09:44:03.468Z,7.50
2018-11-01T09:46:31.884Z,7.60
2018-11-01T09:48:59.958Z,7.60
2018-11-01T09:51:28.129Z,7.60
2018-11-01T09:53:56.289Z,7.60
2018-11-01T09:56:24.556Z,7.70
2018-11-01T09:58:52.664Z,7.70
2018-11-01T10:01:20.865Z,7.70
2018-11-01T10:03:49.033Z,7.90
2018-11-01T10:06:17.206Z,8.00
2018-11-01T10:08:45.376Z,8.20
2018-11-01T10:11:13.554Z,8.40
2018-11-01T10:13:41.711Z,8.50
2018-11-01T10:16:09.957Z,8.80
2018-11-01T10:18:38.091Z,8.80
2018-11-01T10:21:06.448Z,8.90
2018-11-01T10:23:34.789Z,9.00
2018-11-01T10:26:02.985Z,9.40
2018-11-01T10:28:31.164Z,10.10
2018-11-01T10:30:59.350Z,10.10
2018-11-01T10:33:28.593Z,12.10
2018-11-01T10:35:56.789Z,12.40
2018-11-01T10:38:24.950Z,13.30
2018-11-01T10:40:53.195Z,12.90
2018-11-01T10:43:21.333Z,12.50
2018-11-01T10:45:49.550Z,13.30
2018-11-01T10:48:17.889Z,13.70
2018-11-01T10:50:46.080Z,13.80
2018-11-01T10:53:14.244Z,14.10
2018-11-01T10:55:42.430Z,13.90
2018-11-01T10:58:10.597Z,13.80
2018-11-01T11:00:44.217Z,14.20
2018-11-01T11:03:12.377Z,14.30
2018-11-01T11:05:40.557Z,14.30
2018-11-01T11:08:08.752Z,14.60
2018-11-01T11:10:36.916Z,14.60
2018-11-01T11:13:05.118Z,14.60
2018-11-01T11:15:33.346Z,14.60
2018-11-01T11:18:01.548Z,14.70
2018-11-01T11:20:29.874Z,15.30
2018-11-01T11:22:57.914Z,15.50
2018-11-01T11:25:26.078Z,15.50
2018-11-01T11:27:54.216Z,15.30
2018-11-01T11:30:22.531Z,15.70
2018-11-01T11:32:50.632Z,16.00
2018-11-01T11:35:18.815Z,15.80
2018-11-01T11:37:46.986Z,15.40
2018-11-01T11:40:15.150Z,15.70
2018-11-01T11:42:43.315Z,15.70
2018-11-01T11:45:12.640Z,15.50
2018-11-01T11:50:10.393Z,14.90
2018-11-01T11:52:38.578Z,14.80
2018-11-01T11:55:07.387Z,15.30
2018-11-01T11:57:35.601Z,14.70
2018-11-01T12:00:04.042Z,15.10
2018-11-01T12:02:32.285Z,15.10
2018-11-01T12:05:00.379Z,14.90
2018-11-01T12:07:28.646Z,16.00
2018-11-01T12:12:24.785Z,13.50
2018-11-01T12:14:52.953Z,14.20
2018-11-01T12:17:21.129Z,16.10
2018-11-01T12:19:49.319Z,15.90
2018-11-01T12:22:18.316Z,15.90
2018-11-01T12:24:46.572Z,15.80
2018-11-01T12:29:42.637Z,16.10
2018-11-01T12:32:10.786Z,15.50
2018-11-01T12:37:06.847Z,15.60
2018-11-01T12:44:30.913Z,15.40
2018-11-01T12:46:59.070Z,15.70
2018-11-01T12:49:27.230Z,15.60
2018-11-01T12:51:55.435Z,15.60
2018-11-01T12:54:23.573Z,15.60
2018-11-01T12:56:51.725Z,15.90
2018-11-01T12:59:19.868Z,15.70
2018-11-01T13:01:48.025Z,15.70
2018-11-01T13:04:16.242Z,16.00
2018-11-01T13:06:44.394Z,16.10
2018-11-01T13:11:42.306Z,16.70
2018-11-01T13:16:38.761Z,17.60
2018-11-01T13:19:06.977Z,18.50
2018-11-01T13:21:35.137Z,19.00
2018-11-01T13:24:03.266Z,19.20
2018-11-01T13:26:31.420Z,18.90
2018-11-01T13:28:59.570Z,18.80
2018-11-01T13:36:23.576Z,18.70
2018-11-01T13:38:51.725Z,18.80
2018-11-01T13:41:19.975Z,16.90
2018-11-01T13:43:48.005Z,16.00
2018-11-01T13:46:16.153Z,15.90
2018-11-01T13:48:44.301Z,15.70
2018-11-01T13:51:12.494Z,15.90
2018-11-01T13:53:40.638Z,15.80
2018-11-01T13:56:08.781Z,15.30
2018-11-01T13:58:37.064Z,14.90
2018-11-01T14:03:33.437Z,14.80
2018-11-01T14:06:01.656Z,14.60
2018-11-01T14:08:29.754Z,14.30
2018-11-01T14:10:57.908Z,14.40
2018-11-01T14:13:26.271Z,14.60
2018-11-01T14:15:54.210Z,14.30
2018-11-01T14:18:22.387Z,14.20
2018-11-01T14:20:50.539Z,14.00
2018-11-01T14:23:18.702Z,14.20
2018-11-01T14:28:14.777Z,14.00
2018-11-01T14:38:06.735Z,13.80
2018-11-01T14:40:34.893Z,13.60
2018-11-01T14:50:26.885Z,13.20
2018-11-01T14:57:52.151Z,13.00
2018-11-01T15:02:47.572Z,12.90
2018-11-01T15:05:15.721Z,12.70
2018-11-01T15:07:43.873Z,12.70
2018-11-01T15:10:13.831Z,12.70
2018-11-01T15:12:42.174Z,12.50
2018-11-01T15:15:10.999Z,12.50
2018-11-01T15:17:39.853Z,12.30
2018-11-01T15:20:08.422Z,12.30
2018-11-01T15:22:36.689Z,12.20
2018-11-01T15:25:05.670Z,12.20
2018-11-01T15:27:33.860Z,12.10
2018-11-01T15:30:02.031Z,12.10
2018-11-01T15:32:30.211Z,11.90
2018-11-01T15:34:58.849Z,11.70
2018-11-01T15:37:27.095Z,11.60
2018-11-01T15:39:55.713Z,11.80
2018-11-01T15:44:52.011Z,11.50
2018-11-01T15:49:48.226Z,11.10
2018-11-01T15:52:16.509Z,11.10
2018-11-01T15:54:44.937Z,11.10
2018-11-01T15:57:13.230Z,11.00
2018-11-01T15:59:42.067Z,10.90
2018-11-01T16:02:10.210Z,10.80
2018-11-01T16:04:38.414Z,10.70
2018-11-01T16:07:06.864Z,10.70
2018-11-01T16:09:35.613Z,10.60
2018-11-01T18:11:24.848Z,7.90
2018-11-01T18:13:53.040Z,7.90
2018-11-01T18:18:49.285Z,7.70
2018-11-01T18:21:17.439Z,7.70
2018-11-01T18:23:45.637Z,7.60
2018-11-01T18:26:13.821Z,7.60
2018-11-01T18:28:42.023Z,7.60
2018-11-01T18:31:10.248Z,7.60
2018-11-01T18:36:06.428Z,7.40
2018-11-01T18:38:34.573Z,7.30
2018-11-01T18:41:02.747Z,7.40
2018-11-01T18:43:31.067Z,7.40
2018-11-01T18:45:59.427Z,7.40
2018-11-01T18:48:27.652Z,7.40
2018-11-01T18:50:55.893Z,7.50
2018-11-01T18:53:24.278Z,7.80
2018-11-01T18:55:52.484Z,7.70
2018-11-01T18:58:20.738Z,7.70
2018-11-01T19:00:49.203Z,7.70
2018-11-01T19:03:21.496Z,7.70
2018-11-01T19:05:49.825Z,7.80
2018-11-01T19:08:18.129Z,7.80
2018-11-01T19:13:14.272Z,7.80
2018-11-01T19:18:10.398Z,7.80
2018-11-01T19:23:06.557Z,7.80
2018-11-01T19:28:03.029Z,7.80
2018-11-01T19:30:31.237Z,7.80
2018-11-01T19:32:59.553Z,7.80
2018-11-01T19:35:27.739Z,7.80
2018-11-01T19:37:55.986Z,7.80
2018-11-01T19:40:24.606Z,7.80
2018-11-01T19:45:20.820Z,7.90
2018-11-01T19:50:17.139Z,8.00
2018-11-01T19:52:45.333Z,8.10
2018-11-01T19:55:13.895Z,9.10
2018-11-01T20:02:43.053Z,8.90
2018-11-01T20:07:39.941Z,8.60
2018-11-01T20:10:09.716Z,8.60
2018-11-01T20:15:06.855Z,8.80
2018-11-01T20:17:35.292Z,9.00
2018-11-01T20:22:31.781Z,9.20
2018-11-01T20:25:00.028Z,9.30
2018-11-01T20:32:24.953Z,9.60
2018-11-01T20:39:49.415Z,9.00
2018-11-01T20:42:17.668Z,9.00
2018-11-01T20:44:46.012Z,9.10
2018-11-01T20:47:17.360Z,9.00
2018-11-01T20:49:45.553Z,8.90
2018-11-01T20:52:13.749Z,9.00
2018-11-01T20:54:42.905Z,9.00
2018-11-01T20:57:11.121Z,9.10
2018-11-01T21:04:38.723Z,9.20
2018-11-01T21:07:06.962Z,9.20
2018-11-01T21:12:03.073Z,8.40
2018-11-01T21:14:31.273Z,8.20
2018-11-01T21:16:59.507Z,8.10
2018-11-01T21:19:27.674Z,8.10
2018-11-01T21:21:55.897Z,8.00
2018-11-01T21:24:24.073Z,8.00
2018-11-01T21:26:52.342Z,8.20
2018-11-01T21:29:20.599Z,8.30
2018-11-01T21:34:16.705Z,8.40
2018-11-01T21:36:44.894Z,8.40
2018-11-01T21:39:13.049Z,8.30
2018-11-01T21:46:37.205Z,8.70
2018-11-01T21:49:07.299Z,8.70
2018-11-01T21:51:35.502Z,8.70
2018-11-01T21:54:03.690Z,8.80
2018-11-01T21:56:31.967Z,8.80
2018-11-01T21:59:00.845Z,8.70
2018-11-01T22:01:29.397Z,8.70
2018-11-01T22:04:03.281Z,8.70
2018-11-01T22:06:31.496Z,8.80
2018-11-01T22:11:27.779Z,8.70
2018-11-01T22:13:55.969Z,8.60
2018-11-01T22:16:24.346Z,8.80
2018-11-01T22:21:20.572Z,8.00
2018-11-01T22:23:48.785Z,7.80
2018-11-01T22:26:17.051Z,7.70
2018-11-01T22:31:13.177Z,7.50
2018-11-01T22:33:41.355Z,7.60
2018-11-01T22:38:37.549Z,7.40
2018-11-01T22:43:33.629Z,7.20
2018-11-01T22:46:01.906Z,7.10
2018-11-01T22:48:30.226Z,7.00
2018-11-01T22:50:58.368Z,6.90
2018-11-01T22:53:26.532Z,6.90
2018-11-01T23:00:50.609Z,7.10
2018-11-01T23:03:18.801Z,7.20
2018-11-01T23:05:46.993Z,7.20
2018-11-01T23:08:15.157Z,7.20
2018-11-01T23:13:11.257Z,7.20
2018-11-01T23:23:03.284Z,7.30
2018-11-01T23:25:31.428Z,7.30
2018-11-01T23:30:27.559Z,7.20
2018-11-01T23:32:55.852Z,7.20
2018-11-01T23:35:23.957Z,7.20
2018-11-01T23:37:57.514Z,7.20
2018-11-01T23:40:31.217Z,7.20
2018-11-01T23:43:04.741Z,7.20
2018-11-01T23:50:40.897Z,7.00
2018-11-01T23:53:13.286Z,6.90
2018-11-01T23:55:41.500Z,6.90
